Aviation Digital Data Service (ADDS)

Output produced by METARs form (0728 UTC 19 February 2019)
found at http://www.aviationweather.gov/metar/data/
 
METAR text: EGNM 190720Z 27009KT 9999 SCT024 06/04 Q1013
Conditions at: EGNM (LEEDS AND BRADFO, GB) observed 0720 UTC 19 February 2019
Temperature: 6.0°C (43°F)
Dewpoint: 4.0°C (39°F) [RH = 87%]
Pressure (altimeter): 29.91 inches Hg (1013.0 mb)
Winds: from the W (270 degrees) at 10 MPH (9 knots; 4.6 m/s)
Visibility: 6 or more miles (10+ km)
Ceiling: at least 12,000 feet AGL
Clouds: scattered clouds at 2400 feet AGL
Weather: no significant weather observed at this time

METAR text: EGNM 190650Z 27013KT 9999 SCT015 SCT021 05/04 Q1012
Conditions at: EGNM (LEEDS AND BRADFO, GB) observed 0650 UTC 19 February 2019
Temperature: 5.0°C (41°F)
Dewpoint: 4.0°C (39°F) [RH = 93%]
Pressure (altimeter): 29.88 inches Hg (1012.0 mb)
Winds: from the W (270 degrees) at 15 MPH (13 knots; 6.7 m/s)
Visibility: 6 or more miles (10+ km)
Ceiling: at least 12,000 feet AGL
Clouds: scattered clouds at 1500 feet AGL
scattered clouds at 2100 feet AGL
Weather: no significant weather observed at this time

METAR text: EGNM 190620Z 26013KT 9999 -SHRA BKN021 06/05 Q1012
Conditions at: EGNM (LEEDS AND BRADFO, GB) observed 0620 UTC 19 February 2019
Temperature: 6.0°C (43°F)
Dewpoint: 5.0°C (41°F) [RH = 93%]
Pressure (altimeter): 29.88 inches Hg (1012.0 mb)
Winds: from the W (260 degrees) at 15 MPH (13 knots; 6.7 m/s)
Visibility: 6 or more miles (10+ km)
Ceiling: 2100 feet AGL
Clouds: broken clouds at 2100 feet AGL
Weather: -SHRA  (light rain showers)

METAR text: EGNM 190550Z 26013KT 220V290 9999 -SHRA BKN021 06/05 Q1012
Conditions at: EGNM (LEEDS AND BRADFO, GB) observed 0550 UTC 19 February 2019
Temperature: 6.0°C (43°F)
Dewpoint: 5.0°C (41°F) [RH = 93%]
Pressure (altimeter): 29.88 inches Hg (1012.0 mb)
Winds: from the W (260 degrees) at 15 MPH (13 knots; 6.7 m/s)
Visibility: 6 or more miles (10+ km)
Ceiling: 2100 feet AGL
Clouds: broken clouds at 2100 feet AGL
Weather: -SHRA  (light rain showers)

METAR text: EGNM 190520Z 26015KT 9999 -SHRA SCT012 SCT029 06/05 Q1012
Conditions at: EGNM (LEEDS AND BRADFO, GB) observed 0520 UTC 19 February 2019
Temperature: 6.0°C (43°F)
Dewpoint: 5.0°C (41°F) [RH = 93%]
Pressure (altimeter): 29.88 inches Hg (1012.0 mb)
Winds: from the W (260 degrees) at 17 MPH (15 knots; 7.7 m/s)
Visibility: 6 or more miles (10+ km)
Ceiling: at least 12,000 feet AGL
Clouds: scattered clouds at 1200 feet AGL
scattered clouds at 2900 feet AGL
Weather: -SHRA  (light rain showers)

METAR text: EGNM 190450Z 26018KT 9999 SCT013 06/05 Q1011
Conditions at: EGNM (LEEDS AND BRADFO, GB) observed 0450 UTC 19 February 2019
Temperature: 6.0°C (43°F)
Dewpoint: 5.0°C (41°F) [RH = 93%]
Pressure (altimeter): 29.85 inches Hg (1011.0 mb)
Winds: from the W (260 degrees) at 21 MPH (18 knots; 9.3 m/s)
Visibility: 6 or more miles (10+ km)
Ceiling: at least 12,000 feet AGL
Clouds: scattered clouds at 1300 feet AGL
Weather: no significant weather observed at this time

METAR text: EGNM 190420Z 26017KT 9999 -RA BKN011 06/05 Q1011
Conditions at: EGNM (LEEDS AND BRADFO, GB) observed 0420 UTC 19 February 2019
Temperature: 6.0°C (43°F)
Dewpoint: 5.0°C (41°F) [RH = 93%]
Pressure (altimeter): 29.85 inches Hg (1011.0 mb)
Winds: from the W (260 degrees) at 20 MPH (17 knots; 8.7 m/s)
Visibility: 6 or more miles (10+ km)
Ceiling: 1100 feet AGL
Clouds: broken clouds at 1100 feet AGL
Weather: -RA  (light rain)

METAR text: EGNM 190350Z 26016G26KT 9999 -DZ BKN014 06/05 Q1011
Conditions at: EGNM (LEEDS AND BRADFO, GB) observed 0350 UTC 19 February 2019
Temperature: 6.0°C (43°F)
Dewpoint: 5.0°C (41°F) [RH = 93%]
Pressure (altimeter): 29.85 inches Hg (1011.0 mb)
Winds: from the W (260 degrees) at 18 MPH (16 knots; 8.2 m/s)
gusting to 30 MPH (26 knots; 13.4 m/s)
Visibility: 6 or more miles (10+ km)
Ceiling: 1400 feet AGL
Clouds: broken clouds at 1400 feet AGL
Weather: -DZ  (light drizzle)

METAR text: EGNM 190320Z 26015KT 9999 -DZ BKN014 06/05 Q1010
Conditions at: EGNM (LEEDS AND BRADFO, GB) observed 0320 UTC 19 February 2019
Temperature: 6.0°C (43°F)
Dewpoint: 5.0°C (41°F) [RH = 93%]
Pressure (altimeter): 29.82 inches Hg (1010.0 mb)
Winds: from the W (260 degrees) at 17 MPH (15 knots; 7.7 m/s)
Visibility: 6 or more miles (10+ km)
Ceiling: 1400 feet AGL
Clouds: broken clouds at 1400 feet AGL
Weather: -DZ  (light drizzle)

METAR text: EGNM 190250Z 26015KT 9999 BKN011 06/05 Q1010
Conditions at: EGNM (LEEDS AND BRADFO, GB) observed 0250 UTC 19 February 2019
Temperature: 6.0°C (43°F)
Dewpoint: 5.0°C (41°F) [RH = 93%]
Pressure (altimeter): 29.82 inches Hg (1010.0 mb)
Winds: from the W (260 degrees) at 17 MPH (15 knots; 7.7 m/s)
Visibility: 6 or more miles (10+ km)
Ceiling: 1100 feet AGL
Clouds: broken clouds at 1100 feet AGL
Weather: no significant weather observed at this time

METAR text: EGNM 190220Z 26015KT 9999 -SHRA BKN012 07/05 Q1010
Conditions at: EGNM (LEEDS AND BRADFO, GB) observed 0220 UTC 19 February 2019
Temperature: 7.0°C (45°F)
Dewpoint: 5.0°C (41°F) [RH = 87%]
Pressure (altimeter): 29.82 inches Hg (1010.0 mb)
Winds: from the W (260 degrees) at 17 MPH (15 knots; 7.7 m/s)
Visibility: 6 or more miles (10+ km)
Ceiling: 1200 feet AGL
Clouds: broken clouds at 1200 feet AGL
Weather: -SHRA  (light rain showers)

METAR text: EGNM 190150Z 26015KT 9999 BKN012 06/05 Q1010
Conditions at: EGNM (LEEDS AND BRADFO, GB) observed 0150 UTC 19 February 2019
Temperature: 6.0°C (43°F)
Dewpoint: 5.0°C (41°F) [RH = 93%]
Pressure (altimeter): 29.82 inches Hg (1010.0 mb)
Winds: from the W (260 degrees) at 17 MPH (15 knots; 7.7 m/s)
Visibility: 6 or more miles (10+ km)
Ceiling: 1200 feet AGL
Clouds: broken clouds at 1200 feet AGL
Weather: no significant weather observed at this time

METAR text: EGNM 190120Z 26014KT 230V290 9999 BKN010 07/05 Q1010
Conditions at: EGNM (LEEDS AND BRADFO, GB) observed 0120 UTC 19 February 2019
Temperature: 7.0°C (45°F)
Dewpoint: 5.0°C (41°F) [RH = 87%]
Pressure (altimeter): 29.82 inches Hg (1010.0 mb)
Winds: from the W (260 degrees) at 16 MPH (14 knots; 7.2 m/s)
Visibility: 6 or more miles (10+ km)
Ceiling: 1000 feet AGL
Clouds: broken clouds at 1000 feet AGL
Weather: no significant weather observed at this time

METAR text: EGNM 190050Z 25013KT 9999 -RA BKN011 06/05 Q1010
Conditions at: EGNM (LEEDS AND BRADFO, GB) observed 0050 UTC 19 February 2019
Temperature: 6.0°C (43°F)
Dewpoint: 5.0°C (41°F) [RH = 93%]
Pressure (altimeter): 29.82 inches Hg (1010.0 mb)
Winds: from the WSW (250 degrees) at 15 MPH (13 knots; 6.7 m/s)
Visibility: 6 or more miles (10+ km)
Ceiling: 1100 feet AGL
Clouds: broken clouds at 1100 feet AGL
Weather: -RA  (light rain)

METAR text: EGNM 190020Z 25013KT 9999 -RA BKN012 07/05 Q1010
Conditions at: EGNM (LEEDS AND BRADFO, GB) observed 0020 UTC 19 February 2019
Temperature: 7.0°C (45°F)
Dewpoint: 5.0°C (41°F) [RH = 87%]
Pressure (altimeter): 29.82 inches Hg (1010.0 mb)
Winds: from the WSW (250 degrees) at 15 MPH (13 knots; 6.7 m/s)
Visibility: 6 or more miles (10+ km)
Ceiling: 1200 feet AGL
Clouds: broken clouds at 1200 feet AGL
Weather: -RA  (light rain)

METAR text: EGNM 182350Z 25012KT 210V280 9999 -RA BKN012 06/05 Q1010
Conditions at: EGNM (LEEDS AND BRADFO, GB) observed 2350 UTC 18 February 2019
Temperature: 6.0°C (43°F)
Dewpoint: 5.0°C (41°F) [RH = 93%]
Pressure (altimeter): 29.82 inches Hg (1010.0 mb)
Winds: from the WSW (250 degrees) at 14 MPH (12 knots; 6.2 m/s)
Visibility: 6 or more miles (10+ km)
Ceiling: 1200 feet AGL
Clouds: broken clouds at 1200 feet AGL
Weather: -RA  (light rain)

METAR text: EGNM 182320Z 24009KT 200V280 9999 -SHRA BKN017 06/05 Q1009
Conditions at: EGNM (LEEDS AND BRADFO, GB) observed 2320 UTC 18 February 2019
Temperature: 6.0°C (43°F)
Dewpoint: 5.0°C (41°F) [RH = 93%]
Pressure (altimeter): 29.79 inches Hg (1009.0 mb)
Winds: from the WSW (240 degrees) at 10 MPH (9 knots; 4.6 m/s)
Visibility: 6 or more miles (10+ km)
Ceiling: 1700 feet AGL
Clouds: broken clouds at 1700 feet AGL
Weather: -SHRA  (light rain showers)

METAR text: EGNM 182250Z 24011KT 210V280 9999 -SHRA SCT019 06/05 Q1009
Conditions at: EGNM (LEEDS AND BRADFO, GB) observed 2250 UTC 18 February 2019
Temperature: 6.0°C (43°F)
Dewpoint: 5.0°C (41°F) [RH = 93%]
Pressure (altimeter): 29.79 inches Hg (1009.0 mb)
Winds: from the WSW (240 degrees) at 13 MPH (11 knots; 5.7 m/s)
Visibility: 6 or more miles (10+ km)
Ceiling: at least 12,000 feet AGL
Clouds: scattered clouds at 1900 feet AGL
Weather: -SHRA  (light rain showers)

METAR text: EGNM 182220Z 24013KT 200V270 9999 -SHRA SCT023 07/04 Q1009
Conditions at: EGNM (LEEDS AND BRADFO, GB) observed 2220 UTC 18 February 2019
Temperature: 7.0°C (45°F)
Dewpoint: 4.0°C (39°F) [RH = 81%]
Pressure (altimeter): 29.79 inches Hg (1009.0 mb)
Winds: from the WSW (240 degrees) at 15 MPH (13 knots; 6.7 m/s)
Visibility: 6 or more miles (10+ km)
Ceiling: at least 12,000 feet AGL
Clouds: scattered clouds at 2300 feet AGL
Weather: -SHRA  (light rain showers)

METAR text: EGNM 182150Z 24012G22KT 9999 -SHRA SCT023 06/04 Q1009
Conditions at: EGNM (LEEDS AND BRADFO, GB) observed 2150 UTC 18 February 2019
Temperature: 6.0°C (43°F)
Dewpoint: 4.0°C (39°F) [RH = 87%]
Pressure (altimeter): 29.79 inches Hg (1009.0 mb)
Winds: from the WSW (240 degrees) at 14 MPH (12 knots; 6.2 m/s)
gusting to 25 MPH (22 knots; 11.3 m/s)
Visibility: 6 or more miles (10+ km)
Ceiling: at least 12,000 feet AGL
Clouds: scattered clouds at 2300 feet AGL
Weather: -SHRA  (light rain showers)

METAR text: EGNM 182120Z 23013KT 190V260 9999 -SHRA BKN020 07/04 Q1009
Conditions at: EGNM (LEEDS AND BRADFO, GB) observed 2120 UTC 18 February 2019
Temperature: 7.0°C (45°F)
Dewpoint: 4.0°C (39°F) [RH = 81%]
Pressure (altimeter): 29.79 inches Hg (1009.0 mb)
Winds: from the SW (230 degrees) at 15 MPH (13 knots; 6.7 m/s)
Visibility: 6 or more miles (10+ km)
Ceiling: 2000 feet AGL
Clouds: broken clouds at 2000 feet AGL
Weather: -SHRA  (light rain showers)

METAR text: EGNM 182050Z 24014KT 9999 -SHRA SCT034 07/03 Q1009
Conditions at: EGNM (LEEDS AND BRADFO, GB) observed 2050 UTC 18 February 2019
Temperature: 7.0°C (45°F)
Dewpoint: 3.0°C (37°F) [RH = 76%]
Pressure (altimeter): 29.79 inches Hg (1009.0 mb)
Winds: from the WSW (240 degrees) at 16 MPH (14 knots; 7.2 m/s)
Visibility: 6 or more miles (10+ km)
Ceiling: at least 12,000 feet AGL
Clouds: scattered clouds at 3400 feet AGL
Weather: -SHRA  (light rain showers)

METAR text: EGNM 182020Z 23014KT 200V260 9999 SCT034 07/03 Q1009
Conditions at: EGNM (LEEDS AND BRADFO, GB) observed 2020 UTC 18 February 2019
Temperature: 7.0°C (45°F)
Dewpoint: 3.0°C (37°F) [RH = 76%]
Pressure (altimeter): 29.79 inches Hg (1009.0 mb)
Winds: from the SW (230 degrees) at 16 MPH (14 knots; 7.2 m/s)
Visibility: 6 or more miles (10+ km)
Ceiling: at least 12,000 feet AGL
Clouds: scattered clouds at 3400 feet AGL
Weather: no significant weather observed at this time

METAR text: EGNM 181950Z 23010KT 190V290 9999 -SHRA SCT034 07/03 Q1009
Conditions at: EGNM (LEEDS AND BRADFO, GB) observed 1950 UTC 18 February 2019
Temperature: 7.0°C (45°F)
Dewpoint: 3.0°C (37°F) [RH = 76%]
Pressure (altimeter): 29.79 inches Hg (1009.0 mb)
Winds: from the SW (230 degrees) at 12 MPH (10 knots; 5.1 m/s)
Visibility: 6 or more miles (10+ km)
Ceiling: at least 12,000 feet AGL
Clouds: scattered clouds at 3400 feet AGL
Weather: -SHRA  (light rain showers)

METAR text: EGNM 181920Z 23011KT 190V270 9999 FEW015 SCT030 07/03 Q1008
Conditions at: EGNM (LEEDS AND BRADFO, GB) observed 1920 UTC 18 February 2019
Temperature: 7.0°C (45°F)
Dewpoint: 3.0°C (37°F) [RH = 76%]
Pressure (altimeter): 29.76 inches Hg (1008.0 mb)
Winds: from the SW (230 degrees) at 13 MPH (11 knots; 5.7 m/s)
Visibility: 6 or more miles (10+ km)
Ceiling: at least 12,000 feet AGL
Clouds: few clouds at 1500 feet AGL
scattered clouds at 3000 feet AGL
Weather: no significant weather observed at this time

METAR text: EGNM 181850Z 24010KT 200V280 9999 FEW015 SCT030 07/03 Q1008
Conditions at: EGNM (LEEDS AND BRADFO, GB) observed 1850 UTC 18 February 2019
Temperature: 7.0°C (45°F)
Dewpoint: 3.0°C (37°F) [RH = 76%]
Pressure (altimeter): 29.76 inches Hg (1008.0 mb)
Winds: from the WSW (240 degrees) at 12 MPH (10 knots; 5.1 m/s)
Visibility: 6 or more miles (10+ km)
Ceiling: at least 12,000 feet AGL
Clouds: few clouds at 1500 feet AGL
scattered clouds at 3000 feet AGL
Weather: no significant weather observed at this time

METAR text: EGNM 181820Z 23013KT 200V270 9999 FEW016 07/03 Q1008
Conditions at: EGNM (LEEDS AND BRADFO, GB) observed 1820 UTC 18 February 2019
Temperature: 7.0°C (45°F)
Dewpoint: 3.0°C (37°F) [RH = 76%]
Pressure (altimeter): 29.76 inches Hg (1008.0 mb)
Winds: from the SW (230 degrees) at 15 MPH (13 knots; 6.7 m/s)
Visibility: 6 or more miles (10+ km)
Ceiling: at least 12,000 feet AGL
Clouds: few clouds at 1600 feet AGL
Weather: no significant weather observed at this time

METAR text: EGNM 181750Z 24016KT 9999 -SHRA FEW016 07/03 Q1007
Conditions at: EGNM (LEEDS AND BRADFO, GB) observed 1750 UTC 18 February 2019
Temperature: 7.0°C (45°F)
Dewpoint: 3.0°C (37°F) [RH = 76%]
Pressure (altimeter): 29.73 inches Hg (1007.0 mb)
Winds: from the WSW (240 degrees) at 18 MPH (16 knots; 8.2 m/s)
Visibility: 6 or more miles (10+ km)
Ceiling: at least 12,000 feet AGL
Clouds: few clouds at 1600 feet AGL
Weather: -SHRA  (light rain showers)

METAR text: EGNM 181720Z 24018KT 200V260 9999 FEW016 07/03 Q1007
Conditions at: EGNM (LEEDS AND BRADFO, GB) observed 1720 UTC 18 February 2019
Temperature: 7.0°C (45°F)
Dewpoint: 3.0°C (37°F) [RH = 76%]
Pressure (altimeter): 29.73 inches Hg (1007.0 mb)
Winds: from the WSW (240 degrees) at 21 MPH (18 knots; 9.3 m/s)
Visibility: 6 or more miles (10+ km)
Ceiling: at least 12,000 feet AGL
Clouds: few clouds at 1600 feet AGL
Weather: no significant weather observed at this time

METAR text: EGNM 181650Z 24018G28KT 200V270 9999 FEW012 07/03 Q1007
Conditions at: EGNM (LEEDS AND BRADFO, GB) observed 1650 UTC 18 February 2019
Temperature: 7.0°C (45°F)
Dewpoint: 3.0°C (37°F) [RH = 76%]
Pressure (altimeter): 29.73 inches Hg (1007.0 mb)
Winds: from the WSW (240 degrees) at 21 MPH (18 knots; 9.3 m/s)
gusting to 32 MPH (28 knots; 14.4 m/s)
Visibility: 6 or more miles (10+ km)
Ceiling: at least 12,000 feet AGL
Clouds: few clouds at 1200 feet AGL
Weather: no significant weather observed at this time

METAR text: EGNM 181620Z 23019KT 9999 -SHRA FEW012 SCT027 07/04 Q1007
Conditions at: EGNM (LEEDS AND BRADFO, GB) observed 1620 UTC 18 February 2019
Temperature: 7.0°C (45°F)
Dewpoint: 4.0°C (39°F) [RH = 81%]
Pressure (altimeter): 29.73 inches Hg (1007.0 mb)
Winds: from the SW (230 degrees) at 22 MPH (19 knots; 9.8 m/s)
Visibility: 6 or more miles (10+ km)
Ceiling: at least 12,000 feet AGL
Clouds: few clouds at 1200 feet AGL
scattered clouds at 2700 feet AGL
Weather: -SHRA  (light rain showers)

METAR text: EGNM 181550Z 22012KT 190V250 9999 -SHRA FEW012 SCT027 07/03 Q1007
Conditions at: EGNM (LEEDS AND BRADFO, GB) observed 1550 UTC 18 February 2019
Temperature: 7.0°C (45°F)
Dewpoint: 3.0°C (37°F) [RH = 76%]
Pressure (altimeter): 29.73 inches Hg (1007.0 mb)
Winds: from the SW (220 degrees) at 14 MPH (12 knots; 6.2 m/s)
Visibility: 6 or more miles (10+ km)
Ceiling: at least 12,000 feet AGL
Clouds: few clouds at 1200 feet AGL
scattered clouds at 2700 feet AGL
Weather: -SHRA  (light rain showers)

METAR text: EGNM 181520Z 24019G30KT 200V270 9999 -SHRA FEW032 07/03 Q1008
Conditions at: EGNM (LEEDS AND BRADFO, GB) observed 1520 UTC 18 February 2019
Temperature: 7.0°C (45°F)
Dewpoint: 3.0°C (37°F) [RH = 76%]
Pressure (altimeter): 29.76 inches Hg (1008.0 mb)
Winds: from the WSW (240 degrees) at 22 MPH (19 knots; 9.8 m/s)
gusting to 34 MPH (30 knots; 15.4 m/s)
Visibility: 6 or more miles (10+ km)
Ceiling: at least 12,000 feet AGL
Clouds: few clouds at 3200 feet AGL
Weather: -SHRA  (light rain showers)

METAR text: EGNM 181450Z 22016KT 180V250 9999 FEW032 09/01 Q1007
Conditions at: EGNM (LEEDS AND BRADFO, GB) observed 1450 UTC 18 February 2019
Temperature: 9.0°C (48°F)
Dewpoint: 1.0°C (34°F) [RH = 57%]
Pressure (altimeter): 29.73 inches Hg (1007.0 mb)
Winds: from the SW (220 degrees) at 18 MPH (16 knots; 8.2 m/s)
Visibility: 6 or more miles (10+ km)
Ceiling: at least 12,000 feet AGL
Clouds: few clouds at 3200 feet AGL
Weather: no significant weather observed at this time

METAR text: EGNM 181420Z 23017KT 200V270 9999 FEW032 09/01 Q1008
Conditions at: EGNM (LEEDS AND BRADFO, GB) observed 1420 UTC 18 February 2019
Temperature: 9.0°C (48°F)
Dewpoint: 1.0°C (34°F) [RH = 57%]
Pressure (altimeter): 29.76 inches Hg (1008.0 mb)
Winds: from the SW (230 degrees) at 20 MPH (17 knots; 8.7 m/s)
Visibility: 6 or more miles (10+ km)
Ceiling: at least 12,000 feet AGL
Clouds: few clouds at 3200 feet AGL
Weather: no significant weather observed at this time

METAR text: EGNM 181350Z 23014G24KT 180V270 9999 FEW028 09/01 Q1008
Conditions at: EGNM (LEEDS AND BRADFO, GB) observed 1350 UTC 18 February 2019
Temperature: 9.0°C (48°F)
Dewpoint: 1.0°C (34°F) [RH = 57%]
Pressure (altimeter): 29.76 inches Hg (1008.0 mb)
Winds: from the SW (230 degrees) at 16 MPH (14 knots; 7.2 m/s)
gusting to 28 MPH (24 knots; 12.3 m/s)
Visibility: 6 or more miles (10+ km)
Ceiling: at least 12,000 feet AGL
Clouds: few clouds at 2800 feet AGL
Weather: no significant weather observed at this time

METAR text: EGNM 181320Z 23015KT 190V260 9999 FEW028 09/02 Q1008
Conditions at: EGNM (LEEDS AND BRADFO, GB) observed 1320 UTC 18 February 2019
Temperature: 9.0°C (48°F)
Dewpoint: 2.0°C (36°F) [RH = 61%]
Pressure (altimeter): 29.76 inches Hg (1008.0 mb)
Winds: from the SW (230 degrees) at 17 MPH (15 knots; 7.7 m/s)
Visibility: 6 or more miles (10+ km)
Ceiling: at least 12,000 feet AGL
Clouds: few clouds at 2800 feet AGL
Weather: no significant weather observed at this time

METAR text: EGNM 181250Z 22015KT 180V260 9999 SCT028 09/02 Q1008
Conditions at: EGNM (LEEDS AND BRADFO, GB) observed 1250 UTC 18 February 2019
Temperature: 9.0°C (48°F)
Dewpoint: 2.0°C (36°F) [RH = 61%]
Pressure (altimeter): 29.76 inches Hg (1008.0 mb)
Winds: from the SW (220 degrees) at 17 MPH (15 knots; 7.7 m/s)
Visibility: 6 or more miles (10+ km)
Ceiling: at least 12,000 feet AGL
Clouds: scattered clouds at 2800 feet AGL
Weather: no significant weather observed at this time

METAR text: EGNM 181220Z 25012KT 190V290 9999 SCT018 SCT027 10/03 Q1008
Conditions at: EGNM (LEEDS AND BRADFO, GB) observed 1220 UTC 18 February 2019
Temperature: 10.0°C (50°F)
Dewpoint: 3.0°C (37°F) [RH = 62%]
Pressure (altimeter): 29.76 inches Hg (1008.0 mb)
Winds: from the WSW (250 degrees) at 14 MPH (12 knots; 6.2 m/s)
Visibility: 6 or more miles (10+ km)
Ceiling: at least 12,000 feet AGL
Clouds: scattered clouds at 1800 feet AGL
scattered clouds at 2700 feet AGL
Weather: no significant weather observed at this time

METAR text: EGNM 181150Z 24010G22KT 190V290 9999 SCT018 SCT027 09/04 Q1009
Conditions at: EGNM (LEEDS AND BRADFO, GB) observed 1150 UTC 18 February 2019
Temperature: 9.0°C (48°F)
Dewpoint: 4.0°C (39°F) [RH = 71%]
Pressure (altimeter): 29.79 inches Hg (1009.0 mb)
Winds: from the WSW (240 degrees) at 12 MPH (10 knots; 5.1 m/s)
gusting to 25 MPH (22 knots; 11.3 m/s)
Visibility: 6 or more miles (10+ km)
Ceiling: at least 12,000 feet AGL
Clouds: scattered clouds at 1800 feet AGL
scattered clouds at 2700 feet AGL
Weather: no significant weather observed at this time

METAR text: EGNM 181120Z 23011G25KT 190V280 9999 SCT020 08/04 Q1009
Conditions at: EGNM (LEEDS AND BRADFO, GB) observed 1120 UTC 18 February 2019
Temperature: 8.0°C (46°F)
Dewpoint: 4.0°C (39°F) [RH = 76%]
Pressure (altimeter): 29.79 inches Hg (1009.0 mb)
Winds: from the SW (230 degrees) at 13 MPH (11 knots; 5.7 m/s)
gusting to 29 MPH (25 knots; 12.9 m/s)
Visibility: 6 or more miles (10+ km)
Ceiling: at least 12,000 feet AGL
Clouds: scattered clouds at 2000 feet AGL
Weather: no significant weather observed at this time

METAR text: EGNM 181050Z 23012KT 180V270 9999 SCT020 08/04 Q1009
Conditions at: EGNM (LEEDS AND BRADFO, GB) observed 1050 UTC 18 February 2019
Temperature: 8.0°C (46°F)
Dewpoint: 4.0°C (39°F) [RH = 76%]
Pressure (altimeter): 29.79 inches Hg (1009.0 mb)
Winds: from the SW (230 degrees) at 14 MPH (12 knots; 6.2 m/s)
Visibility: 6 or more miles (10+ km)
Ceiling: at least 12,000 feet AGL
Clouds: scattered clouds at 2000 feet AGL
Weather: no significant weather observed at this time

METAR text: EGNM 181020Z 22015KT 180V350 9999 SCT024 09/04 Q1008
Conditions at: EGNM (LEEDS AND BRADFO, GB) observed 1020 UTC 18 February 2019
Temperature: 9.0°C (48°F)
Dewpoint: 4.0°C (39°F) [RH = 71%]
Pressure (altimeter): 29.76 inches Hg (1008.0 mb)
Winds: from the SW (220 degrees) at 17 MPH (15 knots; 7.7 m/s)
Visibility: 6 or more miles (10+ km)
Ceiling: at least 12,000 feet AGL
Clouds: scattered clouds at 2400 feet AGL
Weather: no significant weather observed at this time

METAR text: EGNM 180950Z 23014KT 190V270 9999 FEW022 08/03 Q1008
Conditions at: EGNM (LEEDS AND BRADFO, GB) observed 0950 UTC 18 February 2019
Temperature: 8.0°C (46°F)
Dewpoint: 3.0°C (37°F) [RH = 71%]
Pressure (altimeter): 29.76 inches Hg (1008.0 mb)
Winds: from the SW (230 degrees) at 16 MPH (14 knots; 7.2 m/s)
Visibility: 6 or more miles (10+ km)
Ceiling: at least 12,000 feet AGL
Clouds: few clouds at 2200 feet AGL
Weather: no significant weather observed at this time

METAR text: EGNM 180920Z 22012G22KT 180V270 9999 SCT020 08/04 Q1009
Conditions at: EGNM (LEEDS AND BRADFO, GB) observed 0920 UTC 18 February 2019
Temperature: 8.0°C (46°F)
Dewpoint: 4.0°C (39°F) [RH = 76%]
Pressure (altimeter): 29.79 inches Hg (1009.0 mb)
Winds: from the SW (220 degrees) at 14 MPH (12 knots; 6.2 m/s)
gusting to 25 MPH (22 knots; 11.3 m/s)
Visibility: 6 or more miles (10+ km)
Ceiling: at least 12,000 feet AGL
Clouds: scattered clouds at 2000 feet AGL
Weather: no significant weather observed at this time

METAR text: EGNM 180850Z 22013KT 160V270 9999 -DZ FEW022 08/04 Q1009
Conditions at: EGNM (LEEDS AND BRADFO, GB) observed 0850 UTC 18 February 2019
Temperature: 8.0°C (46°F)
Dewpoint: 4.0°C (39°F) [RH = 76%]
Pressure (altimeter): 29.79 inches Hg (1009.0 mb)
Winds: from the SW (220 degrees) at 15 MPH (13 knots; 6.7 m/s)
Visibility: 6 or more miles (10+ km)
Ceiling: at least 12,000 feet AGL
Clouds: few clouds at 2200 feet AGL
Weather: -DZ  (light drizzle)

METAR text: EGNM 180820Z 21011KT 170V260 9999 FEW022 08/03 Q1009
Conditions at: EGNM (LEEDS AND BRADFO, GB) observed 0820 UTC 18 February 2019
Temperature: 8.0°C (46°F)
Dewpoint: 3.0°C (37°F) [RH = 71%]
Pressure (altimeter): 29.79 inches Hg (1009.0 mb)
Winds: from the SSW (210 degrees) at 13 MPH (11 knots; 5.7 m/s)
Visibility: 6 or more miles (10+ km)
Ceiling: at least 12,000 feet AGL
Clouds: few clouds at 2200 feet AGL
Weather: no significant weather observed at this time

METAR text: EGNM 180750Z 20009KT 170V240 9999 FEW022 07/04 Q1009
Conditions at: EGNM (LEEDS AND BRADFO, GB) observed 0750 UTC 18 February 2019
Temperature: 7.0°C (45°F)
Dewpoint: 4.0°C (39°F) [RH = 81%]
Pressure (altimeter): 29.79 inches Hg (1009.0 mb)
Winds: from the SSW (200 degrees) at 10 MPH (9 knots; 4.6 m/s)
Visibility: 6 or more miles (10+ km)
Ceiling: at least 12,000 feet AGL
Clouds: few clouds at 2200 feet AGL
Weather: no significant weather observed at this time

METAR text: EGNM 180720Z 20010KT 150V240 9999 FEW022 07/03 Q1009
Conditions at: EGNM (LEEDS AND BRADFO, GB) observed 0720 UTC 18 February 2019
Temperature: 7.0°C (45°F)
Dewpoint: 3.0°C (37°F) [RH = 76%]
Pressure (altimeter): 29.79 inches Hg (1009.0 mb)
Winds: from the SSW (200 degrees) at 12 MPH (10 knots; 5.1 m/s)
Visibility: 6 or more miles (10+ km)
Ceiling: at least 12,000 feet AGL
Clouds: few clouds at 2200 feet AGL
Weather: no significant weather observed at this time

METAR text: EGNM 180650Z 20010KT 170V240 9999 FEW024 07/04 Q1009
Conditions at: EGNM (LEEDS AND BRADFO, GB) observed 0650 UTC 18 February 2019
Temperature: 7.0°C (45°F)
Dewpoint: 4.0°C (39°F) [RH = 81%]
Pressure (altimeter): 29.79 inches Hg (1009.0 mb)
Winds: from the SSW (200 degrees) at 12 MPH (10 knots; 5.1 m/s)
Visibility: 6 or more miles (10+ km)
Ceiling: at least 12,000 feet AGL
Clouds: few clouds at 2400 feet AGL
Weather: no significant weather observed at this time

METAR text: EGNM 180620Z 21007KT 160V260 9999 SCT020 07/04 Q1009
Conditions at: EGNM (LEEDS AND BRADFO, GB) observed 0620 UTC 18 February 2019
Temperature: 7.0°C (45°F)
Dewpoint: 4.0°C (39°F) [RH = 81%]
Pressure (altimeter): 29.79 inches Hg (1009.0 mb)
Winds: from the SSW (210 degrees) at 8 MPH (7 knots; 3.6 m/s)
Visibility: 6 or more miles (10+ km)
Ceiling: at least 12,000 feet AGL
Clouds: scattered clouds at 2000 feet AGL
Weather: no significant weather observed at this time

METAR text: EGNM 180550Z 21007KT 150V260 9999 SCT020 07/04 Q1009
Conditions at: EGNM (LEEDS AND BRADFO, GB) observed 0550 UTC 18 February 2019
Temperature: 7.0°C (45°F)
Dewpoint: 4.0°C (39°F) [RH = 81%]
Pressure (altimeter): 29.79 inches Hg (1009.0 mb)
Winds: from the SSW (210 degrees) at 8 MPH (7 knots; 3.6 m/s)
Visibility: 6 or more miles (10+ km)
Ceiling: at least 12,000 feet AGL
Clouds: scattered clouds at 2000 feet AGL
Weather: no significant weather observed at this time

METAR text: EGNM 180520Z 22007KT 160V290 9999 SCT020 07/04 Q1009
Conditions at: EGNM (LEEDS AND BRADFO, GB) observed 0520 UTC 18 February 2019
Temperature: 7.0°C (45°F)
Dewpoint: 4.0°C (39°F) [RH = 81%]
Pressure (altimeter): 29.79 inches Hg (1009.0 mb)
Winds: from the SW (220 degrees) at 8 MPH (7 knots; 3.6 m/s)
Visibility: 6 or more miles (10+ km)
Ceiling: at least 12,000 feet AGL
Clouds: scattered clouds at 2000 feet AGL
Weather: no significant weather observed at this time

METAR text: EGNM 180450Z 22007KT 170V270 9999 SCT020 07/04 Q1009
Conditions at: EGNM (LEEDS AND BRADFO, GB) observed 0450 UTC 18 February 2019
Temperature: 7.0°C (45°F)
Dewpoint: 4.0°C (39°F) [RH = 81%]
Pressure (altimeter): 29.79 inches Hg (1009.0 mb)
Winds: from the SW (220 degrees) at 8 MPH (7 knots; 3.6 m/s)
Visibility: 6 or more miles (10+ km)
Ceiling: at least 12,000 feet AGL
Clouds: scattered clouds at 2000 feet AGL
Weather: no significant weather observed at this time

METAR text: EGNM 180420Z 22006KT 180V290 9999 SCT020 07/04 Q1009
Conditions at: EGNM (LEEDS AND BRADFO, GB) observed 0420 UTC 18 February 2019
Temperature: 7.0°C (45°F)
Dewpoint: 4.0°C (39°F) [RH = 81%]
Pressure (altimeter): 29.79 inches Hg (1009.0 mb)
Winds: from the SW (220 degrees) at 7 MPH (6 knots; 3.1 m/s)
Visibility: 6 or more miles (10+ km)
Ceiling: at least 12,000 feet AGL
Clouds: scattered clouds at 2000 feet AGL
Weather: no significant weather observed at this time

METAR text: EGNM 180350Z 22007KT 150V270 9999 BKN020 08/04 Q1010
Conditions at: EGNM (LEEDS AND BRADFO, GB) observed 0350 UTC 18 February 2019
Temperature: 8.0°C (46°F)
Dewpoint: 4.0°C (39°F) [RH = 76%]
Pressure (altimeter): 29.82 inches Hg (1010.0 mb)
Winds: from the SW (220 degrees) at 8 MPH (7 knots; 3.6 m/s)
Visibility: 6 or more miles (10+ km)
Ceiling: 2000 feet AGL
Clouds: broken clouds at 2000 feet AGL
Weather: no significant weather observed at this time

METAR text: EGNM 180320Z 20007KT 140V270 9999 BKN020 07/04 Q1010
Conditions at: EGNM (LEEDS AND BRADFO, GB) observed 0320 UTC 18 February 2019
Temperature: 7.0°C (45°F)
Dewpoint: 4.0°C (39°F) [RH = 81%]
Pressure (altimeter): 29.82 inches Hg (1010.0 mb)
Winds: from the SSW (200 degrees) at 8 MPH (7 knots; 3.6 m/s)
Visibility: 6 or more miles (10+ km)
Ceiling: 2000 feet AGL
Clouds: broken clouds at 2000 feet AGL
Weather: no significant weather observed at this time

METAR text: EGNM 180250Z 20006KT 150V240 9999 SCT020 07/04 Q1010
Conditions at: EGNM (LEEDS AND BRADFO, GB) observed 0250 UTC 18 February 2019
Temperature: 7.0°C (45°F)
Dewpoint: 4.0°C (39°F) [RH = 81%]
Pressure (altimeter): 29.82 inches Hg (1010.0 mb)
Winds: from the SSW (200 degrees) at 7 MPH (6 knots; 3.1 m/s)
Visibility: 6 or more miles (10+ km)
Ceiling: at least 12,000 feet AGL
Clouds: scattered clouds at 2000 feet AGL
Weather: no significant weather observed at this time

METAR text: EGNM 180220Z 19004KT 140V270 9999 SCT025 07/04 Q1010
Conditions at: EGNM (LEEDS AND BRADFO, GB) observed 0220 UTC 18 February 2019
Temperature: 7.0°C (45°F)
Dewpoint: 4.0°C (39°F) [RH = 81%]
Pressure (altimeter): 29.82 inches Hg (1010.0 mb)
Winds: from the S (190 degrees) at 5 MPH (4 knots; 2.1 m/s)
Visibility: 6 or more miles (10+ km)
Ceiling: at least 12,000 feet AGL
Clouds: scattered clouds at 2500 feet AGL
Weather: no significant weather observed at this time

METAR text: EGNM 180150Z 18005KT 140V220 9999 FEW025 BKN045 08/04 Q1010
Conditions at: EGNM (LEEDS AND BRADFO, GB) observed 0150 UTC 18 February 2019
Temperature: 8.0°C (46°F)
Dewpoint: 4.0°C (39°F) [RH = 76%]
Pressure (altimeter): 29.82 inches Hg (1010.0 mb)
Winds: from the S (180 degrees) at 6 MPH (5 knots; 2.6 m/s)
Visibility: 6 or more miles (10+ km)
Ceiling: 4500 feet AGL
Clouds: few clouds at 2500 feet AGL
broken clouds at 4500 feet AGL
Weather: no significant weather observed at this time

METAR text: EGNM 180120Z 19006KT 160V230 9999 BKN045 07/04 Q1010
Conditions at: EGNM (LEEDS AND BRADFO, GB) observed 0120 UTC 18 February 2019
Temperature: 7.0°C (45°F)
Dewpoint: 4.0°C (39°F) [RH = 81%]
Pressure (altimeter): 29.82 inches Hg (1010.0 mb)
Winds: from the S (190 degrees) at 7 MPH (6 knots; 3.1 m/s)
Visibility: 6 or more miles (10+ km)
Ceiling: 4500 feet AGL
Clouds: broken clouds at 4500 feet AGL
Weather: no significant weather observed at this time

METAR text: EGNM 180050Z 19007G19KT 140V240 9999 FEW025 BKN045 08/04 Q1010
Conditions at: EGNM (LEEDS AND BRADFO, GB) observed 0050 UTC 18 February 2019
Temperature: 8.0°C (46°F)
Dewpoint: 4.0°C (39°F) [RH = 76%]
Pressure (altimeter): 29.82 inches Hg (1010.0 mb)
Winds: from the S (190 degrees) at 8 MPH (7 knots; 3.6 m/s)
gusting to 22 MPH (19 knots; 9.8 m/s)
Visibility: 6 or more miles (10+ km)
Ceiling: 4500 feet AGL
Clouds: few clouds at 2500 feet AGL
broken clouds at 4500 feet AGL
Weather: no significant weather observed at this time

METAR text: EGNM 180020Z 16006KT 100V220 9999 SCT025 BKN030 07/04 Q1010
Conditions at: EGNM (LEEDS AND BRADFO, GB) observed 0020 UTC 18 February 2019
Temperature: 7.0°C (45°F)
Dewpoint: 4.0°C (39°F) [RH = 81%]
Pressure (altimeter): 29.82 inches Hg (1010.0 mb)
Winds: from the SSE (160 degrees) at 7 MPH (6 knots; 3.1 m/s)
Visibility: 6 or more miles (10+ km)
Ceiling: 3000 feet AGL
Clouds: scattered clouds at 2500 feet AGL
broken clouds at 3000 feet AGL
Weather: no significant weather observed at this time

METAR text: EGNM 172350Z 14005KT 100V210 9999 BKN030 08/04 Q1010
Conditions at: EGNM (LEEDS AND BRADFO, GB) observed 2350 UTC 17 February 2019
Temperature: 8.0°C (46°F)
Dewpoint: 4.0°C (39°F) [RH = 76%]
Pressure (altimeter): 29.82 inches Hg (1010.0 mb)
Winds: from the SE (140 degrees) at 6 MPH (5 knots; 2.6 m/s)
Visibility: 6 or more miles (10+ km)
Ceiling: 3000 feet AGL
Clouds: broken clouds at 3000 feet AGL
Weather: no significant weather observed at this time

METAR text: EGNM 172320Z 19006KT 150V280 9999 FEW030 BKN040 08/03 Q1010
Conditions at: EGNM (LEEDS AND BRADFO, GB) observed 2320 UTC 17 February 2019
Temperature: 8.0°C (46°F)
Dewpoint: 3.0°C (37°F) [RH = 71%]
Pressure (altimeter): 29.82 inches Hg (1010.0 mb)
Winds: from the S (190 degrees) at 7 MPH (6 knots; 3.1 m/s)
Visibility: 6 or more miles (10+ km)
Ceiling: 4000 feet AGL
Clouds: few clouds at 3000 feet AGL
broken clouds at 4000 feet AGL
Weather: no significant weather observed at this time

METAR text: EGNM 172250Z 17005KT 120V210 9999 SCT042 08/03 Q1010
Conditions at: EGNM (LEEDS AND BRADFO, GB) observed 2250 UTC 17 February 2019
Temperature: 8.0°C (46°F)
Dewpoint: 3.0°C (37°F) [RH = 71%]
Pressure (altimeter): 29.82 inches Hg (1010.0 mb)
Winds: from the S (170 degrees) at 6 MPH (5 knots; 2.6 m/s)
Visibility: 6 or more miles (10+ km)
Ceiling: at least 12,000 feet AGL
Clouds: scattered clouds at 4200 feet AGL
Weather: no significant weather observed at this time

METAR text: EGNM 172220Z 17007KT 130V220 9999 SCT042 08/03 Q1010
Conditions at: EGNM (LEEDS AND BRADFO, GB) observed 2220 UTC 17 February 2019
Temperature: 8.0°C (46°F)
Dewpoint: 3.0°C (37°F) [RH = 71%]
Pressure (altimeter): 29.82 inches Hg (1010.0 mb)
Winds: from the S (170 degrees) at 8 MPH (7 knots; 3.6 m/s)
Visibility: 6 or more miles (10+ km)
Ceiling: at least 12,000 feet AGL
Clouds: scattered clouds at 4200 feet AGL
Weather: no significant weather observed at this time

METAR text: EGNM 172150Z 20007KT 130V250 CAVOK 07/02 Q1010
Conditions at: EGNM (LEEDS AND BRADFO, GB) observed 2150 UTC 17 February 2019
Temperature: 7.0°C (45°F)
Dewpoint: 2.0°C (36°F) [RH = 70%]
Pressure (altimeter): 29.82 inches Hg (1010.0 mb)
Winds: from the SSW (200 degrees) at 8 MPH (7 knots; 3.6 m/s)
Visibility: 6 or more miles (10+ km)
Ceiling: ceiling and visibility are OK
Clouds: unknown
Weather: no significant weather observed at this time

METAR text: EGNM 172120Z 20008KT 160V240 9999 FEW025 07/02 Q1010
Conditions at: EGNM (LEEDS AND BRADFO, GB) observed 2120 UTC 17 February 2019
Temperature: 7.0°C (45°F)
Dewpoint: 2.0°C (36°F) [RH = 70%]
Pressure (altimeter): 29.82 inches Hg (1010.0 mb)
Winds: from the SSW (200 degrees) at 9 MPH (8 knots; 4.1 m/s)
Visibility: 6 or more miles (10+ km)
Ceiling: at least 12,000 feet AGL
Clouds: few clouds at 2500 feet AGL
Weather: no significant weather observed at this time

METAR text: EGNM 172050Z 22007KT 190V270 CAVOK 08/02 Q1010
Conditions at: EGNM (LEEDS AND BRADFO, GB) observed 2050 UTC 17 February 2019
Temperature: 8.0°C (46°F)
Dewpoint: 2.0°C (36°F) [RH = 66%]
Pressure (altimeter): 29.82 inches Hg (1010.0 mb)
Winds: from the SW (220 degrees) at 8 MPH (7 knots; 3.6 m/s)
Visibility: 6 or more miles (10+ km)
Ceiling: ceiling and visibility are OK
Clouds: unknown
Weather: no significant weather observed at this time

METAR text: EGNM 172020Z 20007KT 160V270 CAVOK 08/02 Q1010
Conditions at: EGNM (LEEDS AND BRADFO, GB) observed 2020 UTC 17 February 2019
Temperature: 8.0°C (46°F)
Dewpoint: 2.0°C (36°F) [RH = 66%]
Pressure (altimeter): 29.82 inches Hg (1010.0 mb)
Winds: from the SSW (200 degrees) at 8 MPH (7 knots; 3.6 m/s)
Visibility: 6 or more miles (10+ km)
Ceiling: ceiling and visibility are OK
Clouds: unknown
Weather: no significant weather observed at this time

METAR text: EGNM 171950Z 21006KT 140V270 9999 FEW018 08/03 Q1010
Conditions at: EGNM (LEEDS AND BRADFO, GB) observed 1950 UTC 17 February 2019
Temperature: 8.0°C (46°F)
Dewpoint: 3.0°C (37°F) [RH = 71%]
Pressure (altimeter): 29.82 inches Hg (1010.0 mb)
Winds: from the SSW (210 degrees) at 7 MPH (6 knots; 3.1 m/s)
Visibility: 6 or more miles (10+ km)
Ceiling: at least 12,000 feet AGL
Clouds: few clouds at 1800 feet AGL
Weather: no significant weather observed at this time

Forecast for: EGNM (LEEDS AND BRADFO, GB)
Text: TAF EGNM 190504Z 1906/2006 22009KT 9999 SCT022
Forecast period: 0600 UTC 19 February 2019 to 0600 UTC 20 February 2019
Forecast type: FROM: standard forecast or significant change
Winds: from the SW (220 degrees) at 10 MPH (9 knots; 4.6 m/s)
Visibility: 6 or more miles 10+ km)
Ceiling: at least 12,000 feet AGL
Clouds: scattered clouds at 2200 feet AGL
Weather: no significant weather forecast for this period
Text: TEMPO 1906/1911 26017G27KT BKN012
Forecast period: 0600 to 1100 UTC 19 February 2019
Forecast type: TEMPORARY: The following changes expected for less than half the time period
Winds: from the W (260 degrees) at 20 MPH (17 knots; 8.7 m/s)
gusting to 31 MPH (27 knots; 13.9 m/s)
Visibility: missing
Ceiling: 1200 feet AGL
Clouds: broken clouds at 1200 feet AGL
Weather: no significant weather forecast for this period
Text: TEMPO 1918/2006 23015G25KT 7000 -RA BKN010
Forecast period: 1800 UTC 19 February 2019 to 0600 UTC 20 February 2019
Forecast type: TEMPORARY: The following changes expected for less than half the time period
Winds: from the SW (230 degrees) at 17 MPH (15 knots; 7.7 m/s)
gusting to 29 MPH (25 knots; 12.9 m/s)
Visibility: 4 miles (7 km)
Ceiling: 1000 feet AGL
Clouds: broken clouds at 1000 feet AGL
Weather: -RA  (light rain)
Text: PROB30
Forecast period: 2000 UTC 19 February 2019 to 0600 UTC 20 February 2019
Forecast type: TEMPORARY: The following changes expected for less than half the time period
Visibility: 2.49 miles (4.01 km)
Ceiling: 800 feet AGL
Clouds: broken clouds at 800 feet AGL
Weather: RA  (moderate rain)